createdAt,value
2023-02-13T00:01:22.647Z,0.50
2023-02-13T00:03:50.708Z,0.50
2023-02-13T00:06:18.688Z,0.50
2023-02-13T00:08:46.805Z,0.50
2023-02-13T00:11:15.614Z,0.60
2023-02-13T00:13:43.593Z,0.60
2023-02-13T00:16:11.887Z,0.60
2023-02-13T00:18:41.287Z,0.60
2023-02-13T00:21:11.820Z,0.60
2023-02-13T00:23:40.940Z,0.60
2023-02-13T00:26:10.960Z,0.70
2023-02-13T00:28:38.962Z,0.70
2023-02-13T00:31:08.654Z,0.70
2023-02-13T00:33:41.553Z,0.70
2023-02-13T00:36:11.458Z,0.70
2023-02-13T00:38:40.988Z,0.70
2023-02-13T00:41:09.508Z,0.70
2023-02-13T00:43:38.046Z,0.70
2023-02-13T00:46:07.074Z,0.80
2023-02-13T00:48:35.810Z,0.80
2023-02-13T00:51:06.118Z,0.80
2023-02-13T00:53:37.089Z,0.80
2023-02-13T00:56:06.283Z,0.80
2023-02-13T00:58:34.634Z,0.80
2023-02-13T01:01:02.689Z,0.80
2023-02-13T01:03:30.746Z,0.80
2023-02-13T01:06:01.562Z,0.80
2023-02-13T01:08:30.953Z,0.90
2023-02-13T01:10:59.332Z,0.90
2023-02-13T01:13:28.089Z,0.80
2023-02-13T01:15:56.092Z,0.80
2023-02-13T01:18:24.303Z,0.90
2023-02-13T01:21:03.618Z,0.90
2023-02-13T01:23:35.237Z,0.90
2023-02-13T01:26:05.867Z,0.90
2023-02-13T01:28:34.129Z,0.90
2023-02-13T01:31:02.780Z,0.90
2023-02-13T01:33:31.419Z,1.00
2023-02-13T01:36:00.280Z,1.00
2023-02-13T01:38:28.386Z,1.00
2023-02-13T01:40:57.969Z,1.00
2023-02-13T01:43:26.290Z,1.00
2023-02-13T01:45:56.855Z,1.00
2023-02-13T01:48:26.732Z,1.00
2023-02-13T01:51:00.255Z,1.10
2023-02-13T01:53:32.721Z,1.10
2023-02-13T01:56:08.173Z,1.10
2023-02-13T01:58:39.227Z,1.10
2023-02-13T02:01:08.978Z,1.10
2023-02-13T02:03:41.033Z,1.20
2023-02-13T02:06:13.102Z,1.20
2023-02-13T02:08:41.098Z,1.20
2023-02-13T02:11:15.754Z,1.20
2023-02-13T02:13:44.449Z,1.20
2023-02-13T02:16:12.781Z,1.20
2023-02-13T02:18:40.770Z,1.20
2023-02-13T02:21:30.112Z,1.30
2023-02-13T02:24:29.394Z,1.30
2023-02-13T02:27:25.477Z,1.30
2023-02-13T02:30:25.712Z,1.30
2023-02-13T02:33:04.235Z,1.30
2023-02-13T02:35:41.032Z,1.30
2023-02-13T02:38:22.469Z,1.30
2023-02-13T02:41:01.930Z,1.30
2023-02-13T02:43:51.332Z,1.30
2023-02-13T02:46:28.225Z,1.30
2023-02-13T02:49:20.678Z,1.30
2023-02-13T02:51:56.260Z,1.30
2023-02-13T02:54:45.608Z,1.40
2023-02-13T02:57:18.102Z,1.40
2023-02-13T03:00:08.150Z,1.40
2023-02-13T03:02:53.954Z,1.40
2023-02-13T03:05:46.951Z,1.40
2023-02-13T03:08:35.902Z,1.40
2023-02-13T03:11:21.370Z,1.40
2023-02-13T03:13:51.046Z,1.50
2023-02-13T03:16:41.117Z,1.50
2023-02-13T03:19:36.389Z,1.50
2023-02-13T03:22:22.866Z,1.50
2023-02-13T03:25:01.425Z,1.50
2023-02-13T03:27:57.493Z,1.60
2023-02-13T03:30:36.544Z,1.60
2023-02-13T03:33:13.575Z,1.60
2023-02-13T03:36:05.950Z,1.60
2023-02-13T03:38:44.320Z,1.60
2023-02-13T03:41:22.241Z,1.60
2023-02-13T03:44:01.696Z,1.60
2023-02-13T03:46:34.827Z,1.70
2023-02-13T03:49:20.329Z,1.70
2023-02-13T03:51:54.462Z,1.70
2023-02-13T03:54:45.744Z,1.70
2023-02-13T03:57:36.277Z,1.70
2023-02-13T04:00:09.679Z,1.70
2023-02-13T04:02:42.210Z,1.70
2023-02-13T04:05:16.374Z,1.70
2023-02-13T04:07:44.400Z,1.70
2023-02-13T04:10:16.439Z,1.70
2023-02-13T04:12:53.614Z,1.80
2023-02-13T04:15:27.299Z,1.80
2023-02-13T04:18:00.713Z,1.70
2023-02-13T04:20:29.514Z,1.80
2023-02-13T04:22:57.509Z,1.80
2023-02-13T04:25:26.857Z,1.80
2023-02-13T04:27:54.808Z,1.80
2023-02-13T04:30:22.944Z,1.80
2023-02-13T04:32:51.899Z,1.80
2023-02-13T04:35:20.113Z,1.80
2023-02-13T04:37:48.122Z,1.80
2023-02-13T04:40:16.317Z,1.80
2023-02-13T04:42:45.660Z,1.80
2023-02-13T04:45:13.834Z,1.90
2023-02-13T04:47:42.096Z,1.90
2023-02-13T04:50:10.931Z,1.90
2023-02-13T04:52:38.959Z,1.90
2023-02-13T04:55:07.451Z,1.90
2023-02-13T04:57:35.645Z,1.90
2023-02-13T05:00:05.882Z,1.90
2023-02-13T05:02:34.154Z,1.90
2023-02-13T05:05:02.101Z,1.90
2023-02-13T05:07:30.050Z,1.90
2023-02-13T05:09:58.023Z,1.90
2023-02-13T05:12:26.012Z,1.90
2023-02-13T05:14:54.226Z,1.90
2023-02-13T05:17:23.611Z,2.00
2023-02-13T05:19:51.563Z,2.00
2023-02-13T05:22:37.019Z,2.00
2023-02-13T05:25:05.166Z,2.00
2023-02-13T05:27:33.235Z,2.00
2023-02-13T05:30:01.309Z,2.00
2023-02-13T05:32:30.656Z,2.00
2023-02-13T05:34:58.613Z,2.00
2023-02-13T05:37:26.575Z,2.00
2023-02-13T05:39:54.842Z,2.00
2023-02-13T05:42:22.871Z,2.00
2023-02-13T05:44:50.841Z,2.00
2023-02-13T05:47:18.895Z,2.00
2023-02-13T05:49:48.212Z,2.00
2023-02-13T05:52:16.167Z,2.00
2023-02-13T05:54:44.133Z,2.00
2023-02-13T05:57:12.090Z,2.10
2023-02-13T05:59:40.063Z,2.00
2023-02-13T06:02:08.022Z,2.10
2023-02-13T06:04:37.048Z,2.10
2023-02-13T06:07:06.404Z,2.10
2023-02-13T06:09:34.612Z,2.10
2023-02-13T06:12:02.567Z,2.10
2023-02-13T06:14:30.548Z,2.10
2023-02-13T06:16:58.567Z,2.10
2023-02-13T06:19:26.578Z,2.10
2023-02-13T06:21:54.544Z,2.10
2023-02-13T06:24:23.872Z,2.10
2023-02-13T06:26:51.851Z,2.10
2023-02-13T06:29:20.044Z,2.10
2023-02-13T06:31:48.098Z,2.10
2023-02-13T06:34:16.196Z,2.10
2023-02-13T06:36:44.190Z,2.10
2023-02-13T06:39:12.437Z,2.10
2023-02-13T06:41:41.821Z,2.20
2023-02-13T06:44:09.874Z,2.20
2023-02-13T06:46:37.922Z,2.20
2023-02-13T06:49:05.925Z,2.20
2023-02-13T06:51:33.917Z,2.10
2023-02-13T06:54:02.600Z,2.20
2023-02-13T06:56:30.644Z,2.20
2023-02-13T06:59:00.341Z,2.20
2023-02-13T07:01:28.425Z,2.20
2023-02-13T07:03:57.697Z,2.30
2023-02-13T07:06:25.680Z,2.20
2023-02-13T07:08:55.836Z,2.30
2023-02-13T07:11:25.871Z,2.30
2023-02-13T07:13:53.836Z,2.30
2023-02-13T07:16:23.272Z,2.30
2023-02-13T07:18:51.413Z,2.30
2023-02-13T07:21:19.369Z,2.30
2023-02-13T07:23:47.325Z,2.30
2023-02-13T07:26:16.172Z,2.40
2023-02-13T07:28:44.152Z,2.40
2023-02-13T07:31:12.316Z,2.40
2023-02-13T07:33:41.798Z,2.40
2023-02-13T07:36:09.955Z,2.40
2023-02-13T07:38:37.921Z,2.40
2023-02-13T07:41:06.181Z,2.40
2023-02-13T07:43:34.239Z,2.40
2023-02-13T07:46:03.761Z,2.40
2023-02-13T07:48:31.763Z,2.50
2023-02-13T07:51:04.075Z,2.50
2023-02-13T07:53:32.283Z,2.50
2023-02-13T07:56:01.256Z,2.50
2023-02-13T07:58:29.191Z,2.50
2023-02-13T08:01:00.170Z,2.60
2023-02-13T08:03:28.253Z,2.60
2023-02-13T08:05:56.801Z,2.60
2023-02-13T08:08:26.453Z,2.60
2023-02-13T08:11:12.463Z,2.60
2023-02-13T08:13:40.914Z,2.60
2023-02-13T08:16:09.131Z,2.70
2023-02-13T08:18:37.093Z,2.70
2023-02-13T08:21:05.547Z,2.70
2023-02-13T08:23:34.986Z,2.80
2023-02-13T08:26:03.414Z,2.80
2023-02-13T08:28:31.572Z,2.80
2023-02-13T08:30:59.658Z,2.90
2023-02-13T08:33:27.687Z,2.90
2023-02-13T08:35:56.117Z,3.00
2023-02-13T08:38:24.372Z,3.00
2023-02-13T08:40:53.682Z,3.00
2023-02-13T08:43:21.683Z,3.10
2023-02-13T08:45:49.799Z,3.10
2023-02-13T08:48:17.765Z,3.10
2023-02-13T08:50:45.746Z,3.20
2023-02-13T08:53:13.967Z,3.20
2023-02-13T08:55:41.947Z,3.30
2023-02-13T08:58:11.285Z,3.30
2023-02-13T09:00:39.232Z,3.40
2023-02-13T09:03:09.177Z,3.50
2023-02-13T09:05:38.456Z,3.50
2023-02-13T09:08:08.084Z,3.60
2023-02-13T09:10:39.506Z,3.60
2023-02-13T09:13:07.833Z,3.70
2023-02-13T09:15:39.949Z,3.80
2023-02-13T09:18:08.308Z,3.80
2023-02-13T09:20:39.265Z,3.90
2023-02-13T09:23:07.207Z,3.90
2023-02-13T09:25:35.179Z,4.00
2023-02-13T09:28:03.161Z,4.10
2023-02-13T09:30:31.288Z,4.20
2023-02-13T09:33:00.633Z,4.30
2023-02-13T09:35:29.181Z,4.40
2023-02-13T09:37:57.152Z,4.40
2023-02-13T09:40:30.324Z,4.50
2023-02-13T09:43:07.302Z,4.60
2023-02-13T09:45:37.541Z,4.80
2023-02-13T09:48:07.828Z,5.10
2023-02-13T09:50:39.704Z,5.30
2023-02-13T09:53:07.968Z,5.40
2023-02-13T09:55:48.238Z,5.30
2023-02-13T09:58:27.410Z,5.40
2023-02-13T10:00:58.390Z,5.50
2023-02-13T10:03:43.400Z,5.40
2023-02-13T10:06:17.333Z,5.40
2023-02-13T10:09:02.566Z,5.50
2023-02-13T10:11:43.463Z,5.70
2023-02-13T10:14:18.948Z,5.70
2023-02-13T10:16:51.991Z,5.70
2023-02-13T10:19:38.227Z,5.70
2023-02-13T10:24:04.266Z,5.80
2023-02-13T10:26:46.484Z,6.00
2023-02-13T10:29:38.474Z,6.30
2023-02-13T10:32:11.752Z,6.70
2023-02-13T10:34:45.051Z,7.00
2023-02-13T10:37:16.815Z,6.90
2023-02-13T10:39:47.166Z,6.80
2023-02-13T10:42:25.422Z,6.70
2023-02-13T10:45:08.438Z,6.70
2023-02-13T10:47:56.828Z,6.60
2023-02-13T10:50:31.629Z,6.60
2023-02-13T10:53:12.917Z,6.60
2023-02-13T10:56:12.630Z,6.70
2023-02-13T10:58:54.086Z,6.60
2023-02-13T11:01:31.048Z,6.50
2023-02-13T11:04:07.217Z,6.50
2023-02-13T11:06:39.066Z,6.40
2023-02-13T11:09:08.516Z,6.40
2023-02-13T11:11:38.759Z,6.30
2023-02-13T11:14:18.283Z,6.20
2023-02-13T11:16:52.178Z,6.20
2023-02-13T11:19:23.205Z,6.20
2023-02-13T11:21:56.097Z,6.20
2023-02-13T11:24:27.032Z,6.20
2023-02-13T11:27:02.071Z,6.10
2023-02-13T11:29:33.157Z,6.10
2023-02-13T11:32:12.586Z,6.10
2023-02-13T11:34:41.126Z,6.10
2023-02-13T11:37:17.040Z,6.10
2023-02-13T11:39:49.555Z,6.10
2023-02-13T11:42:23.139Z,6.10
2023-02-13T11:44:54.864Z,6.10
2023-02-13T11:47:40.932Z,6.00
2023-02-13T11:50:22.610Z,6.00
2023-02-13T11:53:03.158Z,6.10
2023-02-13T11:55:34.012Z,6.10
2023-02-13T11:58:03.838Z,6.00
2023-02-13T12:00:41.337Z,6.00
2023-02-13T12:03:27.772Z,6.00
2023-02-13T12:06:04.046Z,5.90
2023-02-13T12:08:33.940Z,5.90
2023-02-13T12:11:04.444Z,5.90
2023-02-13T12:13:36.816Z,5.90
2023-02-13T12:16:12.960Z,5.80
2023-02-13T12:18:43.994Z,5.80
2023-02-13T12:21:27.259Z,5.80
2023-02-13T12:24:04.250Z,5.80
2023-02-13T12:26:37.335Z,5.80
2023-02-13T12:29:28.353Z,5.80
2023-02-13T12:32:06.477Z,5.80
2023-02-13T12:35:13.630Z,5.80
2023-02-13T12:37:56.383Z,5.70
2023-02-13T12:40:44.155Z,5.70
2023-02-13T12:43:38.098Z,5.70
2023-02-13T12:46:12.040Z,5.70
2023-02-13T12:48:49.605Z,5.70
2023-02-13T12:51:38.155Z,5.60
2023-02-13T12:54:27.595Z,5.60
2023-02-13T12:57:05.298Z,5.60
2023-02-13T12:59:45.613Z,5.60
2023-02-13T13:02:46.092Z,5.60
2023-02-13T13:05:27.363Z,5.50
2023-02-13T13:08:20.374Z,5.50
2023-02-13T13:10:57.558Z,5.50
2023-02-13T13:13:37.834Z,5.50
2023-02-13T13:16:16.746Z,5.50
2023-02-13T13:18:57.263Z,5.50
2023-02-13T13:21:40.594Z,5.50
2023-02-13T13:24:22.444Z,5.50
2023-02-13T13:26:54.139Z,5.50
2023-02-13T13:29:26.001Z,5.50
2023-02-13T13:31:57.274Z,5.50
2023-02-13T13:34:27.714Z,5.40
2023-02-13T13:37:04.048Z,5.40
2023-02-13T13:39:44.960Z,5.40
2023-02-13T13:42:19.863Z,5.40
2023-02-13T13:45:06.034Z,5.40
2023-02-13T13:47:51.696Z,5.40
2023-02-13T13:50:23.374Z,5.40
2023-02-13T13:53:11.140Z,5.40
2023-02-13T13:56:09.200Z,5.40
2023-02-13T13:58:43.552Z,5.40
2023-02-13T14:01:26.648Z,5.30
2023-02-13T14:03:56.134Z,5.40
2023-02-13T14:06:26.433Z,5.30
2023-02-13T14:09:01.747Z,5.40
2023-02-13T14:11:37.819Z,5.40
2023-02-13T14:14:41.128Z,5.30
2023-02-13T14:17:16.427Z,5.30
2023-02-13T14:19:50.956Z,5.40
2023-02-13T14:22:35.231Z,5.40
2023-02-13T14:25:07.344Z,5.30
2023-02-13T14:27:38.104Z,5.30
2023-02-13T14:30:08.207Z,5.30
2023-02-13T14:32:41.039Z,5.30
2023-02-13T14:35:24.390Z,5.30
2023-02-13T14:37:55.089Z,5.30
2023-02-13T14:40:47.112Z,5.30
2023-02-13T14:43:49.721Z,5.30
2023-02-13T14:46:35.882Z,5.30
2023-02-13T14:49:08.964Z,5.30
2023-02-13T14:51:40.542Z,5.20
2023-02-13T14:54:17.515Z,5.20
2023-02-13T14:56:50.823Z,5.20
2023-02-13T14:59:23.461Z,5.20
2023-02-13T15:01:56.431Z,5.20
2023-02-13T15:04:31.026Z,5.20
2023-02-13T15:07:01.471Z,5.20
2023-02-13T15:09:34.203Z,5.10
2023-02-13T15:12:03.565Z,5.20
2023-02-13T15:14:35.897Z,5.10
2023-02-13T15:17:08.350Z,5.10
2023-02-13T15:19:40.011Z,5.10
2023-02-13T15:22:08.645Z,5.10
2023-02-13T15:24:47.140Z,5.00
2023-02-13T15:27:21.936Z,5.00
2023-02-13T15:30:03.502Z,5.00
2023-02-13T15:32:35.679Z,5.00
2023-02-13T15:35:11.241Z,5.00
2023-02-13T15:37:39.224Z,5.00
2023-02-13T15:40:22.979Z,4.90
2023-02-13T15:42:53.163Z,5.00
2023-02-13T15:45:23.575Z,4.90
2023-02-13T15:47:52.765Z,4.90
2023-02-13T15:50:25.164Z,4.90
2023-02-13T15:52:53.905Z,4.90
2023-02-13T15:55:24.539Z,4.90
2023-02-13T15:57:56.771Z,4.90
2023-02-13T16:00:27.909Z,4.90
2023-02-13T16:02:59.374Z,4.80
2023-02-13T16:05:39.288Z,4.80
2023-02-13T16:08:28.463Z,4.80
2023-02-13T16:11:31.988Z,4.80
2023-02-13T16:14:07.053Z,4.80
2023-02-13T16:16:44.898Z,4.70
2023-02-13T16:19:25.125Z,4.70
2023-02-13T16:21:54.534Z,4.70
2023-02-13T16:24:23.416Z,4.70
2023-02-13T16:26:51.646Z,4.70
2023-02-13T16:29:22.972Z,4.60
2023-02-13T16:31:55.500Z,4.60
2023-02-13T16:34:27.374Z,4.60
2023-02-13T16:36:56.455Z,4.60
2023-02-13T16:39:29.999Z,4.60
2023-02-13T16:41:58.546Z,4.60
2023-02-13T16:44:30.304Z,4.50
2023-02-13T16:47:01.471Z,4.50
2023-02-13T16:49:32.604Z,4.50
2023-02-13T16:52:08.814Z,4.50
2023-02-13T16:54:40.474Z,4.50
2023-02-13T16:57:21.369Z,4.40
2023-02-13T17:00:03.951Z,4.40
2023-02-13T17:02:33.492Z,4.40
2023-02-13T17:05:21.571Z,4.30
2023-02-13T17:07:52.942Z,4.30
2023-02-13T17:10:23.870Z,4.30
2023-02-13T17:12:52.887Z,4.30
2023-02-13T17:15:24.796Z,4.20
2023-02-13T17:17:53.610Z,4.20
2023-02-13T17:20:23.534Z,4.20
2023-02-13T17:22:53.517Z,4.10
2023-02-13T17:25:23.547Z,4.10
2023-02-13T17:27:54.539Z,4.10
2023-02-13T17:30:26.233Z,4.10
2023-02-13T17:32:59.442Z,4.10
2023-02-13T17:35:29.360Z,4.10
2023-02-13T17:37:57.476Z,4.10
2023-02-13T17:40:29.562Z,4.10
2023-02-13T17:42:59.453Z,4.00
2023-02-13T17:45:31.731Z,4.00
2023-02-13T17:47:59.983Z,4.00
2023-02-13T17:50:29.685Z,4.00
2023-02-13T17:52:58.603Z,4.00
2023-02-13T17:55:28.283Z,4.00
2023-02-13T17:58:07.872Z,4.00
2023-02-13T18:00:37.617Z,4.00
2023-02-13T18:03:05.758Z,4.00
2023-02-13T18:05:34.109Z,4.00
2023-02-13T18:08:03.149Z,3.90
2023-02-13T18:10:33.076Z,3.90
2023-02-13T18:13:15.301Z,3.90
2023-02-13T18:15:45.841Z,3.90
2023-02-13T18:18:16.307Z,3.90
2023-02-13T18:20:44.655Z,3.90
2023-02-13T18:23:13.897Z,3.80
2023-02-13T18:25:50.775Z,3.80
2023-02-13T18:28:18.857Z,3.80
2023-02-13T18:30:48.343Z,3.80
2023-02-13T18:33:19.458Z,3.90
2023-02-13T18:35:50.700Z,3.80
2023-02-13T18:38:19.098Z,3.80
2023-02-13T18:40:47.483Z,3.80
2023-02-13T18:43:15.667Z,3.80
2023-02-13T18:45:45.740Z,3.80
2023-02-13T18:48:15.734Z,3.80
2023-02-13T18:50:43.907Z,3.80
2023-02-13T18:53:12.102Z,3.70
2023-02-13T18:55:40.362Z,3.70
2023-02-13T18:58:08.408Z,3.70
2023-02-13T19:00:39.495Z,3.70
2023-02-13T19:03:10.176Z,3.70
2023-02-13T19:05:43.944Z,3.70
2023-02-13T19:08:12.089Z,3.70
2023-02-13T19:10:40.331Z,3.70
2023-02-13T19:13:08.608Z,3.70
2023-02-13T19:15:40.650Z,3.70
2023-02-13T19:18:08.838Z,3.70
2023-02-13T19:20:41.272Z,3.70
2023-02-13T19:23:10.958Z,3.60
2023-02-13T19:25:39.977Z,3.60
2023-02-13T19:28:08.073Z,3.70
2023-02-13T19:30:38.469Z,3.60
2023-02-13T19:33:06.803Z,3.60
2023-02-13T19:35:35.020Z,3.60
2023-02-13T19:38:07.682Z,3.60
2023-02-13T19:40:37.128Z,3.60
2023-02-13T19:43:05.452Z,3.60
2023-02-13T19:45:34.713Z,3.60
2023-02-13T19:48:02.727Z,3.60
2023-02-13T19:50:30.905Z,3.60
2023-02-13T19:52:58.910Z,3.60
2023-02-13T19:55:29.445Z,3.60
2023-02-13T19:57:59.146Z,3.60
2023-02-13T20:00:27.322Z,3.60
2023-02-13T20:03:00.466Z,3.60
2023-02-13T20:05:28.816Z,3.50
2023-02-13T20:08:06.352Z,3.50
2023-02-13T20:10:36.511Z,3.60
2023-02-13T20:13:06.154Z,3.50
2023-02-13T20:15:34.330Z,3.50
2023-02-13T20:18:02.745Z,3.50
2023-02-13T20:20:30.850Z,3.50
2023-02-13T20:23:01.761Z,3.50
2023-02-13T20:25:32.165Z,3.50
2023-02-13T20:28:04.958Z,3.40
2023-02-13T20:30:35.077Z,3.50
2023-02-13T20:33:06.026Z,3.50
2023-02-13T20:35:34.689Z,3.50
2023-02-13T20:38:02.731Z,3.50
2023-02-13T20:40:30.857Z,3.40
2023-02-13T20:42:58.928Z,3.50
2023-02-13T20:45:27.058Z,3.40
2023-02-13T20:47:58.716Z,3.40
2023-02-13T20:50:26.755Z,3.40
2023-02-13T20:52:55.082Z,3.40
2023-02-13T20:55:23.232Z,3.40
2023-02-13T20:57:51.217Z,3.40
2023-02-13T21:00:19.407Z,3.40
2023-02-13T21:02:47.473Z,3.40
2023-02-13T21:05:17.021Z,3.40
2023-02-13T21:07:47.443Z,3.40
2023-02-13T21:10:15.705Z,3.40
2023-02-13T21:12:43.763Z,3.40
2023-02-13T21:15:11.764Z,3.40
2023-02-13T21:17:39.815Z,3.40
2023-02-13T21:20:09.018Z,3.40
2023-02-13T21:22:41.486Z,3.40
2023-02-13T21:25:09.658Z,3.40
2023-02-13T21:27:40.201Z,3.40
2023-02-13T21:30:09.748Z,3.40
2023-02-13T21:32:39.340Z,3.40
2023-02-13T21:35:08.206Z,3.30
2023-02-13T21:37:36.488Z,3.30
2023-02-13T21:40:06.984Z,3.30
2023-02-13T21:42:37.100Z,3.30
2023-02-13T21:45:17.547Z,3.30
2023-02-13T21:47:47.917Z,3.30
2023-02-13T21:50:16.466Z,3.30
2023-02-13T21:52:44.443Z,3.30
2023-02-13T21:55:15.180Z,3.30
2023-02-13T21:57:43.153Z,3.30
2023-02-13T22:00:12.318Z,3.30
2023-02-13T22:02:40.566Z,3.30
2023-02-13T22:05:09.012Z,3.30
2023-02-13T22:07:57.193Z,3.30
2023-02-13T22:10:29.269Z,3.30
2023-02-13T22:13:14.319Z,3.20
2023-02-13T22:15:42.275Z,3.30
2023-02-13T22:18:10.256Z,3.20
2023-02-13T22:20:38.259Z,3.30
2023-02-13T22:23:06.296Z,3.20
2023-02-13T22:25:38.615Z,3.20
2023-02-13T22:28:06.591Z,3.20
2023-02-13T22:30:37.589Z,3.20
2023-02-13T22:33:05.997Z,3.20
2023-02-13T22:35:38.798Z,3.20
2023-02-13T22:38:06.975Z,3.20
2023-02-13T22:40:38.060Z,3.20
2023-02-13T22:43:06.562Z,3.20
2023-02-13T22:45:39.350Z,3.20
2023-02-13T22:48:07.805Z,3.20
2023-02-13T22:50:39.077Z,3.20
2023-02-13T22:53:07.082Z,3.20
2023-02-13T22:55:36.455Z,3.20
2023-02-13T22:58:04.432Z,3.20
2023-02-13T23:00:32.423Z,3.10
2023-02-13T23:03:00.438Z,3.10
2023-02-13T23:05:28.452Z,3.10
2023-02-13T23:07:56.766Z,3.10
2023-02-13T23:10:25.917Z,3.10
2023-02-13T23:12:56.421Z,3.10
2023-02-13T23:15:25.043Z,3.10
2023-02-13T23:18:10.356Z,3.10
2023-02-13T23:20:38.627Z,3.10
2023-02-13T23:23:06.931Z,3.10
2023-02-13T23:25:35.959Z,3.10
2023-02-13T23:28:07.406Z,3.10
2023-02-13T23:30:35.690Z,3.10
2023-02-13T23:33:06.155Z,3.10
2023-02-13T23:35:34.119Z,3.10
2023-02-13T23:38:02.083Z,3.00
2023-02-13T23:40:30.137Z,3.00
2023-02-13T23:42:58.479Z,3.10
2023-02-13T23:45:27.904Z,3.00
2023-02-13T23:47:55.884Z,3.00
2023-02-13T23:50:23.904Z,3.00
2023-02-13T23:52:51.909Z,3.00
2023-02-13T23:55:20.047Z,3.00
2023-02-13T23:57:51.924Z,3.00
